Virtual United States Air Force

 METAR AND TAF INFORMATION
METAR FOR KVPS
ADDS - METARS form results

(1521 UTC 26 February 2020)
Data provider http://aviationweather.gov/metar/data/
 
METAR text: KVPS 261515Z AUTO 36006KT 10SM BKN180 15/11 A2999 RMK AO2 DZB1459E00DZB01E15 SLP162 $
Conditions at: KVPS (EGLIN AFB/VALPAR, FL, US) observed 1515 UTC 26 February 2020
Temperature: 15.0°C (59°F)
Dewpoint: 11.0°C (52°F) [RH = 77%]
Pressure (altimeter): 29.99 inches Hg (1015.7 mb)
[Sea-level pressure: 1016.2 mb]
Winds: from the N (360 degrees) at 7 MPH (6 knots; 3.1 m/s)
Visibility: 10 or more miles (16+ km)
Ceiling: 18000 feet AGL
Clouds: broken clouds at 18000 feet AGL
Weather:
SOME DATA ABOVE MAY BE INACCURATE!!!
"$" is an indication the sensor requires maintenance

METAR text: KVPS 261501Z AUTO 34007KT 10SM -DZ BKN180 14/11 A2999 RMK AO2 DZB1459E00DZB01 SLP162 $
Conditions at: KVPS (EGLIN AFB/VALPAR, FL, US) observed 1501 UTC 26 February 2020
Temperature: 14.0°C (57°F)
Dewpoint: 11.0°C (52°F) [RH = 82%]
Pressure (altimeter): 29.99 inches Hg (1015.7 mb)
[Sea-level pressure: 1016.2 mb]
Winds: from the NNW (340 degrees) at 8 MPH (7 knots; 3.6 m/s)
Visibility: 10 or more miles (16+ km)
Ceiling: 18000 feet AGL
Clouds: broken clouds at 18000 feet AGL
Weather: -DZ  (light drizzle)
SOME DATA ABOVE MAY BE INACCURATE!!!
"$" is an indication the sensor requires maintenance

METAR text: KVPS 261500Z AUTO 34007KT 10SM BKN180 14/11 A2999 RMK AO2 DZB1459E00 SLP162 $
Conditions at: KVPS (EGLIN AFB/VALPAR, FL, US) observed 1500 UTC 26 February 2020
Temperature: 14.0°C (57°F)
Dewpoint: 11.0°C (52°F) [RH = 82%]
Pressure (altimeter): 29.99 inches Hg (1015.7 mb)
[Sea-level pressure: 1016.2 mb]
Winds: from the NNW (340 degrees) at 8 MPH (7 knots; 3.6 m/s)
Visibility: 10 or more miles (16+ km)
Ceiling: 18000 feet AGL
Clouds: broken clouds at 18000 feet AGL
Weather:
SOME DATA ABOVE MAY BE INACCURATE!!!
"$" is an indication the sensor requires maintenance

METAR text: KVPS 261459Z AUTO 34008KT 10SM -DZ BKN170 BKN190 14/11 A2999 RMK AO2 DZB59 SLP162 $
Conditions at: KVPS (EGLIN AFB/VALPAR, FL, US) observed 1459 UTC 26 February 2020
Temperature: 14.0°C (57°F)
Dewpoint: 11.0°C (52°F) [RH = 82%]
Pressure (altimeter): 29.99 inches Hg (1015.7 mb)
[Sea-level pressure: 1016.2 mb]
Winds: from the NNW (340 degrees) at 9 MPH (8 knots; 4.1 m/s)
Visibility: 10 or more miles (16+ km)
Ceiling: 17000 feet AGL
Clouds: broken clouds at 17000 feet AGL
broken clouds at 19000 feet AGL
Weather: -DZ  (light drizzle)
SOME DATA ABOVE MAY BE INACCURATE!!!
"$" is an indication the sensor requires maintenance

METAR text: KVPS 261456Z AUTO 35008KT 10SM BKN170 BKN190 14/11 A2998 RMK AO2 DZB20E30DZB40E51 SLP159 P0000 6//// T01430109 $
Conditions at: KVPS (EGLIN AFB/VALPAR, FL, US) observed 1456 UTC 26 February 2020
Temperature: 14.3°C (58°F)
Dewpoint: 10.9°C (52°F) [RH = 80%]
Pressure (altimeter): 29.98 inches Hg (1015.3 mb)
[Sea-level pressure: 1015.9 mb]
Winds: from the N (350 degrees) at 9 MPH (8 knots; 4.1 m/s)
Visibility: 10 or more miles (16+ km)
Ceiling: 17000 feet AGL
Clouds: broken clouds at 17000 feet AGL
broken clouds at 19000 feet AGL
Weather:
SOME DATA ABOVE MAY BE INACCURATE!!!
"$" is an indication the sensor requires maintenance

METAR text: KVPS 261451Z AUTO 36008KT 10SM SCT170 BKN190 14/11 A2998 RMK AO2 DZB20E30DZB40E51 SLP159 $
Conditions at: KVPS (EGLIN AFB/VALPAR, FL, US) observed 1451 UTC 26 February 2020
Temperature: 14.0°C (57°F)
Dewpoint: 11.0°C (52°F) [RH = 82%]
Pressure (altimeter): 29.98 inches Hg (1015.3 mb)
[Sea-level pressure: 1015.9 mb]
Winds: from the N (360 degrees) at 9 MPH (8 knots; 4.1 m/s)
Visibility: 10 or more miles (16+ km)
Ceiling: 19000 feet AGL
Clouds: scattered clouds at 17000 feet AGL
broken clouds at 19000 feet AGL
Weather:
SOME DATA ABOVE MAY BE INACCURATE!!!
"$" is an indication the sensor requires maintenance

METAR text: KVPS 261440Z AUTO 33008KT 10SM -DZ FEW190 14/11 A2998 RMK AO2 DZB20E30DZB40 SLP159 $
Conditions at: KVPS (EGLIN AFB/VALPAR, FL, US) observed 1440 UTC 26 February 2020
Temperature: 14.0°C (57°F)
Dewpoint: 11.0°C (52°F) [RH = 82%]
Pressure (altimeter): 29.98 inches Hg (1015.3 mb)
[Sea-level pressure: 1015.9 mb]
Winds: from the NNW (330 degrees) at 9 MPH (8 knots; 4.1 m/s)
Visibility: 10 or more miles (16+ km)
Ceiling: at least 12,000 feet AGL
Clouds: few clouds at 19000 feet AGL
Weather: -DZ  (light drizzle)
SOME DATA ABOVE MAY BE INACCURATE!!!
"$" is an indication the sensor requires maintenance

METAR text: KVPS 261430Z AUTO 32008KT 10SM FEW190 14/11 A2997 RMK AO2 DZB20E30 SLP156 $
Conditions at: KVPS (EGLIN AFB/VALPAR, FL, US) observed 1430 UTC 26 February 2020
Temperature: 14.0°C (57°F)
Dewpoint: 11.0°C (52°F) [RH = 82%]
Pressure (altimeter): 29.97 inches Hg (1015.0 mb)
[Sea-level pressure: 1015.6 mb]
Winds: from the NW (320 degrees) at 9 MPH (8 knots; 4.1 m/s)
Visibility: 10 or more miles (16+ km)
Ceiling: at least 12,000 feet AGL
Clouds: few clouds at 19000 feet AGL
Weather:
SOME DATA ABOVE MAY BE INACCURATE!!!
"$" is an indication the sensor requires maintenance

Forecast for: AMD
Text: TAF AMD KVPS 261120Z 2611/2716 35006KT 9999 BKN035 BKN220 QNH2988INS
Forecast period: 1100 to 1300 UTC 26 February 2020
Forecast type: FROM: standard forecast or significant change
Winds: from the N (350 degrees) at 7 MPH (6 knots; 3.1 m/s)
Visibility: 6 or more miles 10+ km)
Ceiling: 3500 feet AGL
Clouds: broken clouds at 3500 feet AGL
broken clouds at 22000 feet AGL
Weather: no significant weather forecast for this period
Text: BECMG 2613/2614 35012KT 9999 SCT035 SCT060 BKN250 QNH2995INS
Forecast period: 1300 to 1800 UTC 26 February 2020
Forecast type: BECOMING: Conditions expected to become as follows by 1400 UTC 26 February 2020
Winds: from the N (350 degrees) at 14 MPH (12 knots; 6.2 m/s)
Visibility: 6 or more miles 10+ km)
Ceiling: 25000 feet AGL
Clouds: scattered clouds at 3500 feet AGL
scattered clouds at 6000 feet AGL
broken clouds at 25000 feet AGL
Weather: no significant weather forecast for this period
Text: BECMG 2618/2619 36015G25KT 9999 FEW035 SCT100 BKN250 QNH2997INS
Forecast period: 1800 UTC 26 February 2020 to 0000 UTC 27 February 2020
Forecast type: BECOMING: Conditions expected to become as follows by 1900 UTC 26 February 2020
Winds: from the N (360 degrees) at 17 MPH (15 knots; 7.7 m/s)
gusting to 29 MPH (25 knots; 12.9 m/s)
Visibility: 6 or more miles 10+ km)
Ceiling: 25000 feet AGL
Clouds: few clouds at 3500 feet AGL
scattered clouds at 10000 feet AGL
broken clouds at 25000 feet AGL
Weather: no significant weather forecast for this period
Text: BECMG 2700/2701 36012G18KT 9999 SCT045 QNH3002INS
Forecast period: 0000 to 1400 UTC 27 February 2020
Forecast type: BECOMING: Conditions expected to become as follows by 0100 UTC 27 February 2020
Winds: from the N (360 degrees) at 14 MPH (12 knots; 6.2 m/s)
gusting to 21 MPH (18 knots; 9.3 m/s)
Visibility: 6 or more miles 10+ km)
Ceiling: at least 12,000 feet AGL
Clouds: scattered clouds at 4500 feet AGL
Weather: no significant weather forecast for this period
Text: BECMG 2714/2715 35010G15KT 9999 SKC QNH3030INS TX20/2619Z TN04/2710Z
Forecast period: 1400 to 1600 UTC 27 February 2020
Forecast type: BECOMING: Conditions expected to become as follows by 1500 UTC 27 February 2020
Winds: from the N (350 degrees) at 12 MPH (10 knots; 5.1 m/s)
gusting to 17 MPH (15 knots; 7.7 m/s)
Visibility: 6 or more miles 10+ km)
Clouds: clear skies
Weather: no significant weather forecast for this period

 AIRPORT MAP

 RUNWAY INFORMATION
Runway 01 Runway length 10012 ft Runway width 300 ft
Runway elevation 50 ft Runway displaced threshold 0 ft Runway heading 12
Runway 19 Runway length 10012 ft Runway width 300 ft
Runway elevation 62 ft Runway displaced threshold 0 ft Runway heading 192
Runway 12 Runway length 12005 ft Runway width 300 ft
Runway elevation 87 ft Runway displaced threshold 0 ft Runway heading 120
Runway 30 Runway length 12005 ft Runway width 300 ft
Runway elevation 52 ft Runway displaced threshold 0 ft Runway heading 300

 AIRPORT FREQUENCIES
Type A/D Name APP/DEP Frequency 125.1 MHZ
Type ATIS Name ATIS Frequency 134.625 MHZ
Type CLD Name CLNC DEL Frequency 127.7 MHZ
Type GND Name GND Frequency 121.8 MHZ
Type PMSV Name PMSV METRO Frequency 34.25 MHZ
Type POST Name COMD POST Frequency 31.805 MHZ
Type PTD Name PTD Frequency 139.3 MHZ
Type TWR Name TWR Frequency 118.2 MHZ

 AIRPORT NEAR NAVIGATION AIDS


Neither the Department of the Air Force, nor any other component of the Department of Defense or Federal Government has approved, endorsed, or authorized this promotion, activity, or organization. Virtual United States Air Force organization is in no way affiliated with the Department of Defense, Department of the Air Force, or any other federal or government entity. Virtual United States Air Force is a group of flight simulation enthusiasts with the common interest of promoting enjoyment and cameraderie through the simulation of military operations and procedures utilizing several flight simulation platforms.

Copyright © vUSAF, LLC // 2018 All Rights Reserved